sensor_id;sensor_type;location;lat;lon;timestamp;P1;durP1;ratioP1;P2;durP2;ratioP2
24373;SDS011;12498;50.880;12.096;2023-07-16T00:00:26;11.02;;;6.00;;
24373;SDS011;12498;50.880;12.096;2023-07-16T00:02:52;12.30;;;6.15;;
24373;SDS011;12498;50.880;12.096;2023-07-16T00:05:18;13.57;;;7.15;;
24373;SDS011;12498;50.880;12.096;2023-07-16T00:07:43;12.38;;;6.65;;
24373;SDS011;12498;50.880;12.096;2023-07-16T00:10:09;11.77;;;6.28;;
24373;SDS011;12498;50.880;12.096;2023-07-16T00:12:35;8.98;;;6.70;;
24373;SDS011;12498;50.880;12.096;2023-07-16T00:15:00;14.35;;;6.60;;
24373;SDS011;12498;50.880;12.096;2023-07-16T00:17:26;11.80;;;6.63;;
24373;SDS011;12498;50.880;12.096;2023-07-16T00:19:52;10.32;;;6.20;;
24373;SDS011;12498;50.880;12.096;2023-07-16T00:22:17;11.77;;;6.78;;
24373;SDS011;12498;50.880;12.096;2023-07-16T00:24:43;10.40;;;6.50;;
24373;SDS011;12498;50.880;12.096;2023-07-16T00:27:08;8.73;;;6.28;;
24373;SDS011;12498;50.880;12.096;2023-07-16T00:29:34;12.57;;;6.63;;
24373;SDS011;12498;50.880;12.096;2023-07-16T00:32:00;14.45;;;7.15;;
24373;SDS011;12498;50.880;12.096;2023-07-16T00:34:25;9.82;;;6.40;;
24373;SDS011;12498;50.880;12.096;2023-07-16T00:36:51;13.90;;;6.60;;
24373;SDS011;12498;50.880;12.096;2023-07-16T00:39:16;10.68;;;6.63;;
24373;SDS011;12498;50.880;12.096;2023-07-16T00:41:42;9.68;;;6.03;;
24373;SDS011;12498;50.880;12.096;2023-07-16T00:44:08;9.77;;;5.78;;
24373;SDS011;12498;50.880;12.096;2023-07-16T00:46:33;7.80;;;5.85;;
24373;SDS011;12498;50.880;12.096;2023-07-16T00:48:59;12.85;;;5.88;;
24373;SDS011;12498;50.880;12.096;2023-07-16T00:51:25;9.68;;;5.65;;
24373;SDS011;12498;50.880;12.096;2023-07-16T00:53:51;7.43;;;5.55;;
24373;SDS011;12498;50.880;12.096;2023-07-16T00:56:17;13.85;;;5.40;;
24373;SDS011;12498;50.880;12.096;2023-07-16T00:58:44;7.50;;;5.47;;
24373;SDS011;12498;50.880;12.096;2023-07-16T01:01:10;11.45;;;5.57;;
24373;SDS011;12498;50.880;12.096;2023-07-16T01:03:36;8.98;;;5.68;;
24373;SDS011;12498;50.880;12.096;2023-07-16T01:08:56;11.48;;;5.78;;
24373;SDS011;12498;50.880;12.096;2023-07-16T01:11:27;12.32;;;6.45;;
24373;SDS011;12498;50.880;12.096;2023-07-16T01:13:54;8.80;;;6.55;;
24373;SDS011;12498;50.880;12.096;2023-07-16T01:16:24;11.10;;;6.60;;
24373;SDS011;12498;50.880;12.096;2023-07-16T01:18:50;10.30;;;7.00;;
24373;SDS011;12498;50.880;12.096;2023-07-16T01:21:17;10.20;;;6.80;;
24373;SDS011;12498;50.880;12.096;2023-07-16T01:26:39;9.20;;;5.97;;
24373;SDS011;12498;50.880;12.096;2023-07-16T01:29:41;9.05;;;6.07;;
24373;SDS011;12498;50.880;12.096;2023-07-16T01:32:14;10.63;;;5.47;;
24373;SDS011;12498;50.880;12.096;2023-07-16T01:34:41;11.27;;;5.57;;
24373;SDS011;12498;50.880;12.096;2023-07-16T01:37:08;8.65;;;5.68;;
24373;SDS011;12498;50.880;12.096;2023-07-16T01:39:34;8.88;;;5.93;;
24373;SDS011;12498;50.880;12.096;2023-07-16T01:42:00;10.77;;;6.25;;
24373;SDS011;12498;50.880;12.096;2023-07-16T01:44:27;13.05;;;6.40;;
24373;SDS011;12498;50.880;12.096;2023-07-16T01:46:59;9.68;;;6.15;;
24373;SDS011;12498;50.880;12.096;2023-07-16T01:49:29;12.65;;;6.35;;
24373;SDS011;12498;50.880;12.096;2023-07-16T01:51:55;10.75;;;6.65;;
24373;SDS011;12498;50.880;12.096;2023-07-16T01:54:20;9.73;;;6.60;;
24373;SDS011;12498;50.880;12.096;2023-07-16T01:56:46;12.60;;;5.68;;
24373;SDS011;12498;50.880;12.096;2023-07-16T01:59:11;10.38;;;6.10;;
24373;SDS011;12498;50.880;12.096;2023-07-16T02:01:37;9.75;;;5.30;;
24373;SDS011;12498;50.880;12.096;2023-07-16T02:04:03;7.85;;;5.80;;
24373;SDS011;12498;50.880;12.096;2023-07-16T02:06:28;12.57;;;5.78;;
24373;SDS011;12498;50.880;12.096;2023-07-16T02:08:54;8.75;;;5.00;;
24373;SDS011;12498;50.880;12.096;2023-07-16T02:11:20;8.57;;;4.97;;
24373;SDS011;12498;50.880;12.096;2023-07-16T02:13:45;8.98;;;4.60;;
24373;SDS011;12498;50.880;12.096;2023-07-16T02:16:11;4.65;;;3.88;;
24373;SDS011;12498;50.880;12.096;2023-07-16T02:18:36;11.13;;;4.50;;
24373;SDS011;12498;50.880;12.096;2023-07-16T02:21:02;5.32;;;3.70;;
24373;SDS011;12498;50.880;12.096;2023-07-16T02:23:28;7.25;;;4.20;;
24373;SDS011;12498;50.880;12.096;2023-07-16T02:25:53;9.45;;;3.58;;
24373;SDS011;12498;50.880;12.096;2023-07-16T02:28:19;7.40;;;3.65;;
24373;SDS011;12498;50.880;12.096;2023-07-16T02:30:44;5.43;;;3.47;;
24373;SDS011;12498;50.880;12.096;2023-07-16T02:33:10;6.63;;;3.67;;
24373;SDS011;12498;50.880;12.096;2023-07-16T02:35:35;7.85;;;3.50;;
24373;SDS011;12498;50.880;12.096;2023-07-16T02:38:01;7.43;;;3.88;;
24373;SDS011;12498;50.880;12.096;2023-07-16T02:40:27;6.60;;;3.72;;
24373;SDS011;12498;50.880;12.096;2023-07-16T02:42:53;4.95;;;3.70;;
24373;SDS011;12498;50.880;12.096;2023-07-16T02:45:18;4.47;;;2.97;;
24373;SDS011;12498;50.880;12.096;2023-07-16T02:47:44;5.38;;;3.35;;
24373;SDS011;12498;50.880;12.096;2023-07-16T02:50:09;6.95;;;3.30;;
24373;SDS011;12498;50.880;12.096;2023-07-16T02:52:35;5.53;;;3.75;;
24373;SDS011;12498;50.880;12.096;2023-07-16T02:55:01;5.22;;;3.40;;
24373;SDS011;12498;50.880;12.096;2023-07-16T02:57:27;4.47;;;3.50;;
24373;SDS011;12498;50.880;12.096;2023-07-16T02:59:53;5.88;;;3.38;;
24373;SDS011;12498;50.880;12.096;2023-07-16T03:02:19;6.43;;;3.53;;
24373;SDS011;12498;50.880;12.096;2023-07-16T03:04:44;4.05;;;3.10;;
24373;SDS011;12498;50.880;12.096;2023-07-16T03:07:10;5.18;;;3.10;;
24373;SDS011;12498;50.880;12.096;2023-07-16T03:09:36;7.60;;;2.88;;
24373;SDS011;12498;50.880;12.096;2023-07-16T03:12:01;5.38;;;3.10;;
24373;SDS011;12498;50.880;12.096;2023-07-16T03:14:27;11.77;;;3.33;;
24373;SDS011;12498;50.880;12.096;2023-07-16T03:16:52;6.40;;;3.15;;
24373;SDS011;12498;50.880;12.096;2023-07-16T03:19:18;5.90;;;3.00;;
24373;SDS011;12498;50.880;12.096;2023-07-16T03:21:44;7.22;;;3.17;;
24373;SDS011;12498;50.880;12.096;2023-07-16T03:24:11;7.20;;;3.60;;
24373;SDS011;12498;50.880;12.096;2023-07-16T03:26:37;4.45;;;3.50;;
24373;SDS011;12498;50.880;12.096;2023-07-16T03:29:02;5.93;;;3.20;;
24373;SDS011;12498;50.880;12.096;2023-07-16T03:31:28;5.45;;;2.90;;
24373;SDS011;12498;50.880;12.096;2023-07-16T03:33:54;4.35;;;3.05;;
24373;SDS011;12498;50.880;12.096;2023-07-16T03:36:20;5.28;;;3.00;;
24373;SDS011;12498;50.880;12.096;2023-07-16T03:38:45;9.23;;;3.00;;
24373;SDS011;12498;50.880;12.096;2023-07-16T03:41:11;8.02;;;3.15;;
24373;SDS011;12498;50.880;12.096;2023-07-16T03:43:37;4.38;;;2.58;;
24373;SDS011;12498;50.880;12.096;2023-07-16T03:46:02;6.10;;;3.30;;
24373;SDS011;12498;50.880;12.096;2023-07-16T03:48:28;4.47;;;3.08;;
24373;SDS011;12498;50.880;12.096;2023-07-16T03:50:54;5.22;;;3.30;;
24373;SDS011;12498;50.880;12.096;2023-07-16T03:53:19;4.45;;;3.30;;
24373;SDS011;12498;50.880;12.096;2023-07-16T03:55:45;4.03;;;3.50;;
24373;SDS011;12498;50.880;12.096;2023-07-16T03:58:10;5.93;;;3.70;;
24373;SDS011;12498;50.880;12.096;2023-07-16T04:00:36;9.02;;;3.45;;
24373;SDS011;12498;50.880;12.096;2023-07-16T04:03:01;10.23;;;4.10;;
24373;SDS011;12498;50.880;12.096;2023-07-16T04:05:27;7.90;;;3.58;;
24373;SDS011;12498;50.880;12.096;2023-07-16T04:07:53;10.13;;;3.63;;
24373;SDS011;12498;50.880;12.096;2023-07-16T04:10:18;8.07;;;3.10;;
24373;SDS011;12498;50.880;12.096;2023-07-16T04:12:44;5.57;;;3.20;;
24373;SDS011;12498;50.880;12.096;2023-07-16T04:15:10;7.78;;;3.63;;
24373;SDS011;12498;50.880;12.096;2023-07-16T04:17:35;7.20;;;3.00;;
24373;SDS011;12498;50.880;12.096;2023-07-16T04:20:01;6.18;;;3.33;;
24373;SDS011;12498;50.880;12.096;2023-07-16T04:22:28;6.30;;;3.20;;
24373;SDS011;12498;50.880;12.096;2023-07-16T04:24:53;6.30;;;3.15;;
24373;SDS011;12498;50.880;12.096;2023-07-16T04:27:19;7.50;;;3.10;;
24373;SDS011;12498;50.880;12.096;2023-07-16T04:29:44;5.50;;;3.15;;
24373;SDS011;12498;50.880;12.096;2023-07-16T04:32:10;5.40;;;3.40;;
24373;SDS011;12498;50.880;12.096;2023-07-16T04:34:36;5.10;;;3.10;;
24373;SDS011;12498;50.880;12.096;2023-07-16T04:37:01;11.32;;;6.65;;
24373;SDS011;12498;50.880;12.096;2023-07-16T04:39:27;7.03;;;4.57;;
24373;SDS011;12498;50.880;12.096;2023-07-16T04:41:52;4.57;;;3.63;;
24373;SDS011;12498;50.880;12.096;2023-07-16T04:44:18;3.08;;;2.60;;
24373;SDS011;12498;50.880;12.096;2023-07-16T04:46:44;5.85;;;2.70;;
24373;SDS011;12498;50.880;12.096;2023-07-16T04:49:09;7.72;;;2.85;;
24373;SDS011;12498;50.880;12.096;2023-07-16T04:51:35;6.10;;;2.72;;
24373;SDS011;12498;50.880;12.096;2023-07-16T04:54:01;6.88;;;2.47;;
24373;SDS011;12498;50.880;12.096;2023-07-16T04:56:26;6.18;;;2.97;;
24373;SDS011;12498;50.880;12.096;2023-07-16T04:58:52;9.35;;;3.67;;
24373;SDS011;12498;50.880;12.096;2023-07-16T05:01:18;7.82;;;3.00;;
24373;SDS011;12498;50.880;12.096;2023-07-16T05:03:45;5.57;;;2.83;;
24373;SDS011;12498;50.880;12.096;2023-07-16T05:06:11;5.45;;;2.78;;
24373;SDS011;12498;50.880;12.096;2023-07-16T05:08:36;5.68;;;2.28;;
24373;SDS011;12498;50.880;12.096;2023-07-16T05:11:02;5.35;;;2.55;;
24373;SDS011;12498;50.880;12.096;2023-07-16T05:13:28;5.10;;;2.63;;
24373;SDS011;12498;50.880;12.096;2023-07-16T05:15:53;4.97;;;3.00;;
24373;SDS011;12498;50.880;12.096;2023-07-16T05:18:19;4.60;;;2.40;;
24373;SDS011;12498;50.880;12.096;2023-07-16T05:20:49;4.35;;;2.47;;
24373;SDS011;12498;50.880;12.096;2023-07-16T05:23:14;4.57;;;2.30;;
24373;SDS011;12498;50.880;12.096;2023-07-16T05:25:47;8.25;;;4.32;;
24373;SDS011;12498;50.880;12.096;2023-07-16T05:28:14;5.40;;;4.25;;
24373;SDS011;12498;50.880;12.096;2023-07-16T05:30:40;4.05;;;2.70;;
24373;SDS011;12498;50.880;12.096;2023-07-16T05:33:06;3.78;;;2.30;;
24373;SDS011;12498;50.880;12.096;2023-07-16T05:35:31;4.68;;;2.65;;
24373;SDS011;12498;50.880;12.096;2023-07-16T05:37:57;4.50;;;2.50;;
24373;SDS011;12498;50.880;12.096;2023-07-16T05:40:22;3.20;;;2.50;;
24373;SDS011;12498;50.880;12.096;2023-07-16T05:42:48;4.03;;;2.40;;
24373;SDS011;12498;50.880;12.096;2023-07-16T05:45:14;4.47;;;2.40;;
24373;SDS011;12498;50.880;12.096;2023-07-16T05:47:39;4.95;;;2.40;;
24373;SDS011;12498;50.880;12.096;2023-07-16T05:50:05;4.20;;;2.42;;
24373;SDS011;12498;50.880;12.096;2023-07-16T05:52:31;6.65;;;2.30;;
24373;SDS011;12498;50.880;12.096;2023-07-16T05:54:57;5.43;;;2.45;;
24373;SDS011;12498;50.880;12.096;2023-07-16T05:57:22;4.60;;;2.50;;
24373;SDS011;12498;50.880;12.096;2023-07-16T05:59:48;5.40;;;2.40;;
24373;SDS011;12498;50.880;12.096;2023-07-16T06:02:13;4.78;;;2.20;;
24373;SDS011;12498;50.880;12.096;2023-07-16T06:04:39;7.45;;;2.30;;
24373;SDS011;12498;50.880;12.096;2023-07-16T06:07:05;7.60;;;2.33;;
24373;SDS011;12498;50.880;12.096;2023-07-16T06:09:31;5.47;;;2.30;;
24373;SDS011;12498;50.880;12.096;2023-07-16T06:11:56;4.32;;;2.13;;
24373;SDS011;12498;50.880;12.096;2023-07-16T06:14:22;4.82;;;2.25;;
24373;SDS011;12498;50.880;12.096;2023-07-16T06:16:47;6.30;;;2.53;;
24373;SDS011;12498;50.880;12.096;2023-07-16T06:19:13;5.75;;;2.13;;
24373;SDS011;12498;50.880;12.096;2023-07-16T06:21:39;5.13;;;1.90;;
24373;SDS011;12498;50.880;12.096;2023-07-16T06:24:06;8.80;;;2.40;;
24373;SDS011;12498;50.880;12.096;2023-07-16T06:26:32;5.03;;;2.67;;
24373;SDS011;12498;50.880;12.096;2023-07-16T06:28:57;5.07;;;2.53;;
24373;SDS011;12498;50.880;12.096;2023-07-16T06:31:23;7.05;;;2.35;;
24373;SDS011;12498;50.880;12.096;2023-07-16T06:33:48;6.03;;;1.90;;
24373;SDS011;12498;50.880;12.096;2023-07-16T06:36:15;6.45;;;2.10;;
24373;SDS011;12498;50.880;12.096;2023-07-16T06:38:41;6.00;;;3.10;;
24373;SDS011;12498;50.880;12.096;2023-07-16T06:41:07;7.78;;;2.50;;
24373;SDS011;12498;50.880;12.096;2023-07-16T06:43:32;4.97;;;2.60;;
24373;SDS011;12498;50.880;12.096;2023-07-16T06:45:58;3.85;;;1.98;;
24373;SDS011;12498;50.880;12.096;2023-07-16T06:48:24;5.63;;;2.28;;
24373;SDS011;12498;50.880;12.096;2023-07-16T06:50:50;8.20;;;2.40;;
24373;SDS011;12498;50.880;12.096;2023-07-16T06:53:16;3.75;;;2.20;;
24373;SDS011;12498;50.880;12.096;2023-07-16T06:55:41;4.47;;;2.42;;
24373;SDS011;12498;50.880;12.096;2023-07-16T06:58:10;4.07;;;2.13;;
24373;SDS011;12498;50.880;12.096;2023-07-16T07:00:36;7.47;;;2.60;;
24373;SDS011;12498;50.880;12.096;2023-07-16T07:03:02;4.20;;;2.40;;
24373;SDS011;12498;50.880;12.096;2023-07-16T07:05:28;6.47;;;2.30;;
24373;SDS011;12498;50.880;12.096;2023-07-16T07:07:53;4.50;;;2.03;;
24373;SDS011;12498;50.880;12.096;2023-07-16T07:10:19;9.48;;;3.47;;
24373;SDS011;12498;50.880;12.096;2023-07-16T07:12:45;7.97;;;3.20;;
24373;SDS011;12498;50.880;12.096;2023-07-16T07:15:10;7.95;;;4.07;;
24373;SDS011;12498;50.880;12.096;2023-07-16T07:17:36;4.65;;;2.20;;
24373;SDS011;12498;50.880;12.096;2023-07-16T07:20:02;5.70;;;2.30;;
24373;SDS011;12498;50.880;12.096;2023-07-16T07:22:28;7.32;;;2.33;;
24373;SDS011;12498;50.880;12.096;2023-07-16T07:24:54;8.65;;;2.63;;
24373;SDS011;12498;50.880;12.096;2023-07-16T07:27:19;5.97;;;2.30;;
24373;SDS011;12498;50.880;12.096;2023-07-16T07:29:45;5.25;;;2.13;;
24373;SDS011;12498;50.880;12.096;2023-07-16T07:32:11;5.82;;;2.20;;
24373;SDS011;12498;50.880;12.096;2023-07-16T07:34:38;6.78;;;2.30;;
24373;SDS011;12498;50.880;12.096;2023-07-16T07:37:04;6.18;;;2.33;;
24373;SDS011;12498;50.880;12.096;2023-07-16T07:39:30;4.75;;;2.25;;
24373;SDS011;12498;50.880;12.096;2023-07-16T07:41:55;3.97;;;2.20;;
24373;SDS011;12498;50.880;12.096;2023-07-16T07:44:21;7.13;;;3.65;;
24373;SDS011;12498;50.880;12.096;2023-07-16T07:46:46;8.35;;;3.10;;
24373;SDS011;12498;50.880;12.096;2023-07-16T07:49:12;4.68;;;2.13;;
24373;SDS011;12498;50.880;12.096;2023-07-16T07:51:37;4.47;;;2.00;;
24373;SDS011;12498;50.880;12.096;2023-07-16T07:54:03;6.72;;;2.50;;
24373;SDS011;12498;50.880;12.096;2023-07-16T07:56:29;7.15;;;2.58;;
24373;SDS011;12498;50.880;12.096;2023-07-16T07:58:55;4.65;;;2.00;;
24373;SDS011;12498;50.880;12.096;2023-07-16T08:01:21;5.63;;;2.80;;
24373;SDS011;12498;50.880;12.096;2023-07-16T08:03:46;11.10;;;2.25;;
24373;SDS011;12498;50.880;12.096;2023-07-16T08:06:12;5.55;;;2.30;;
24373;SDS011;12498;50.880;12.096;2023-07-16T08:08:37;8.45;;;2.78;;
24373;SDS011;12498;50.880;12.096;2023-07-16T08:11:03;8.32;;;2.50;;
24373;SDS011;12498;50.880;12.096;2023-07-16T08:13:29;8.23;;;2.13;;
24373;SDS011;12498;50.880;12.096;2023-07-16T08:15:54;7.32;;;2.22;;
24373;SDS011;12498;50.880;12.096;2023-07-16T08:18:20;5.35;;;2.13;;
24373;SDS011;12498;50.880;12.096;2023-07-16T08:20:46;7.47;;;2.03;;
24373;SDS011;12498;50.880;12.096;2023-07-16T08:23:12;6.43;;;2.03;;
24373;SDS011;12498;50.880;12.096;2023-07-16T08:25:38;5.55;;;2.22;;
24373;SDS011;12498;50.880;12.096;2023-07-16T08:28:04;7.35;;;2.17;;
24373;SDS011;12498;50.880;12.096;2023-07-16T08:30:29;8.30;;;1.90;;
24373;SDS011;12498;50.880;12.096;2023-07-16T08:32:56;4.85;;;2.05;;
24373;SDS011;12498;50.880;12.096;2023-07-16T08:35:22;6.80;;;2.13;;
24373;SDS011;12498;50.880;12.096;2023-07-16T08:37:48;6.32;;;2.10;;
24373;SDS011;12498;50.880;12.096;2023-07-16T08:40:13;9.80;;;2.10;;
24373;SDS011;12498;50.880;12.096;2023-07-16T08:42:39;7.22;;;2.10;;
24373;SDS011;12498;50.880;12.096;2023-07-16T08:45:11;4.93;;;2.05;;
24373;SDS011;12498;50.880;12.096;2023-07-16T08:47:38;10.57;;;2.53;;
24373;SDS011;12498;50.880;12.096;2023-07-16T08:50:04;5.82;;;2.05;;
24373;SDS011;12498;50.880;12.096;2023-07-16T08:52:30;5.60;;;2.10;;
24373;SDS011;12498;50.880;12.096;2023-07-16T08:54:56;8.27;;;2.13;;
24373;SDS011;12498;50.880;12.096;2023-07-16T08:57:22;7.40;;;2.40;;
24373;SDS011;12498;50.880;12.096;2023-07-16T08:59:48;6.43;;;2.10;;
24373;SDS011;12498;50.880;12.096;2023-07-16T09:02:18;7.18;;;2.05;;
24373;SDS011;12498;50.880;12.096;2023-07-16T09:04:47;6.20;;;2.50;;
24373;SDS011;12498;50.880;12.096;2023-07-16T09:07:14;11.45;;;2.40;;
24373;SDS011;12498;50.880;12.096;2023-07-16T09:09:40;6.50;;;2.58;;
24373;SDS011;12498;50.880;12.096;2023-07-16T09:12:06;4.70;;;1.73;;
24373;SDS011;12498;50.880;12.096;2023-07-16T09:14:36;10.43;;;2.83;;
24373;SDS011;12498;50.880;12.096;2023-07-16T09:17:02;6.07;;;2.03;;
24373;SDS011;12498;50.880;12.096;2023-07-16T09:19:27;6.90;;;2.08;;
24373;SDS011;12498;50.880;12.096;2023-07-16T09:21:57;4.95;;;2.05;;
24373;SDS011;12498;50.880;12.096;2023-07-16T09:24:23;8.15;;;2.08;;
24373;SDS011;12498;50.880;12.096;2023-07-16T09:26:49;4.80;;;2.03;;
24373;SDS011;12498;50.880;12.096;2023-07-16T09:29:17;8.68;;;2.10;;
24373;SDS011;12498;50.880;12.096;2023-07-16T09:31:56;7.60;;;2.13;;
24373;SDS011;12498;50.880;12.096;2023-07-16T09:34:26;6.13;;;2.10;;
24373;SDS011;12498;50.880;12.096;2023-07-16T09:36:52;7.93;;;1.92;;
24373;SDS011;12498;50.880;12.096;2023-07-16T09:39:18;5.65;;;2.47;;
24373;SDS011;12498;50.880;12.096;2023-07-16T09:41:47;10.50;;;2.33;;
24373;SDS011;12498;50.880;12.096;2023-07-16T09:44:14;5.03;;;2.47;;
24373;SDS011;12498;50.880;12.096;2023-07-16T09:46:44;7.40;;;2.78;;
24373;SDS011;12498;50.880;12.096;2023-07-16T09:49:10;7.35;;;2.20;;
24373;SDS011;12498;50.880;12.096;2023-07-16T09:51:37;4.18;;;1.80;;
24373;SDS011;12498;50.880;12.096;2023-07-16T09:54:04;6.15;;;2.08;;
24373;SDS011;12498;50.880;12.096;2023-07-16T09:56:38;7.18;;;2.05;;
24373;SDS011;12498;50.880;12.096;2023-07-16T09:59:08;9.13;;;2.40;;
24373;SDS011;12498;50.880;12.096;2023-07-16T10:01:36;4.82;;;2.00;;
24373;SDS011;12498;50.880;12.096;2023-07-16T10:09:36;6.32;;;1.88;;
24373;SDS011;12498;50.880;12.096;2023-07-16T10:14:43;6.22;;;2.38;;
24373;SDS011;12498;50.880;12.096;2023-07-16T10:17:20;7.18;;;2.28;;
24373;SDS011;12498;50.880;12.096;2023-07-16T10:19:48;3.95;;;1.77;;
24373;SDS011;12498;50.880;12.096;2023-07-16T10:22:30;8.13;;;2.25;;
24373;SDS011;12498;50.880;12.096;2023-07-16T10:24:56;6.65;;;2.10;;
24373;SDS011;12498;50.880;12.096;2023-07-16T10:27:31;6.35;;;2.08;;
24373;SDS011;12498;50.880;12.096;2023-07-16T10:29:59;6.55;;;1.90;;
24373;SDS011;12498;50.880;12.096;2023-07-16T10:34:54;4.45;;;2.05;;
24373;SDS011;12498;50.880;12.096;2023-07-16T10:37:20;5.43;;;1.88;;
24373;SDS011;12498;50.880;12.096;2023-07-16T10:39:46;4.78;;;2.00;;
24373;SDS011;12498;50.880;12.096;2023-07-16T10:42:16;7.88;;;2.20;;
24373;SDS011;12498;50.880;12.096;2023-07-16T10:44:43;5.60;;;2.17;;
24373;SDS011;12498;50.880;12.096;2023-07-16T10:47:09;4.40;;;2.00;;
24373;SDS011;12498;50.880;12.096;2023-07-16T10:49:43;8.35;;;2.30;;
24373;SDS011;12498;50.880;12.096;2023-07-16T10:52:09;5.53;;;2.10;;
24373;SDS011;12498;50.880;12.096;2023-07-16T10:54:35;6.40;;;2.05;;
24373;SDS011;12498;50.880;12.096;2023-07-16T10:57:00;6.22;;;2.10;;
24373;SDS011;12498;50.880;12.096;2023-07-16T10:59:28;5.13;;;2.10;;
24373;SDS011;12498;50.880;12.096;2023-07-16T11:01:54;5.85;;;2.17;;
24373;SDS011;12498;50.880;12.096;2023-07-16T11:04:20;6.28;;;2.50;;
24373;SDS011;12498;50.880;12.096;2023-07-16T11:06:45;6.00;;;2.15;;
24373;SDS011;12498;50.880;12.096;2023-07-16T11:09:11;6.25;;;2.50;;
24373;SDS011;12498;50.880;12.096;2023-07-16T11:11:37;5.60;;;2.30;;
24373;SDS011;12498;50.880;12.096;2023-07-16T11:14:03;5.68;;;2.10;;
24373;SDS011;12498;50.880;12.096;2023-07-16T11:16:36;5.05;;;2.20;;
24373;SDS011;12498;50.880;12.096;2023-07-16T11:19:06;5.43;;;2.30;;
24373;SDS011;12498;50.880;12.096;2023-07-16T11:21:34;6.32;;;2.28;;
24373;SDS011;12498;50.880;12.096;2023-07-16T11:24:10;6.60;;;2.35;;
24373;SDS011;12498;50.880;12.096;2023-07-16T11:26:38;9.00;;;2.38;;
24373;SDS011;12498;50.880;12.096;2023-07-16T11:29:13;6.60;;;2.22;;
24373;SDS011;12498;50.880;12.096;2023-07-16T11:31:39;4.38;;;2.20;;
24373;SDS011;12498;50.880;12.096;2023-07-16T11:34:06;8.55;;;2.30;;
24373;SDS011;12498;50.880;12.096;2023-07-16T11:36:33;6.35;;;2.45;;
24373;SDS011;12498;50.880;12.096;2023-07-16T11:38:59;4.82;;;2.08;;
24373;SDS011;12498;50.880;12.096;2023-07-16T11:41:27;4.22;;;1.90;;
24373;SDS011;12498;50.880;12.096;2023-07-16T11:43:53;9.32;;;2.20;;
24373;SDS011;12498;50.880;12.096;2023-07-16T11:46:19;7.18;;;1.90;;
24373;SDS011;12498;50.880;12.096;2023-07-16T11:48:44;4.55;;;1.95;;
24373;SDS011;12498;50.880;12.096;2023-07-16T11:51:10;4.90;;;2.30;;
24373;SDS011;12498;50.880;12.096;2023-07-16T11:53:36;6.53;;;2.15;;
24373;SDS011;12498;50.880;12.096;2023-07-16T11:56:01;8.25;;;2.00;;
24373;SDS011;12498;50.880;12.096;2023-07-16T11:58:27;4.80;;;1.98;;
24373;SDS011;12498;50.880;12.096;2023-07-16T12:00:53;5.13;;;2.03;;
24373;SDS011;12498;50.880;12.096;2023-07-16T12:03:18;8.23;;;3.08;;
24373;SDS011;12498;50.880;12.096;2023-07-16T12:05:44;6.95;;;2.30;;
24373;SDS011;12498;50.880;12.096;2023-07-16T12:08:10;5.20;;;2.40;;
24373;SDS011;12498;50.880;12.096;2023-07-16T12:10:39;5.07;;;2.53;;
24373;SDS011;12498;50.880;12.096;2023-07-16T12:13:05;5.05;;;2.15;;
24373;SDS011;12498;50.880;12.096;2023-07-16T12:15:31;6.32;;;2.33;;
24373;SDS011;12498;50.880;12.096;2023-07-16T12:17:57;6.97;;;2.45;;
24373;SDS011;12498;50.880;12.096;2023-07-16T12:20:23;5.05;;;2.30;;
24373;SDS011;12498;50.880;12.096;2023-07-16T12:22:48;6.43;;;2.20;;
24373;SDS011;12498;50.880;12.096;2023-07-16T12:25:14;5.78;;;2.20;;
24373;SDS011;12498;50.880;12.096;2023-07-16T12:27:42;5.35;;;2.30;;
24373;SDS011;12498;50.880;12.096;2023-07-16T12:30:08;5.35;;;2.22;;
24373;SDS011;12498;50.880;12.096;2023-07-16T12:32:34;8.00;;;2.35;;
24373;SDS011;12498;50.880;12.096;2023-07-16T12:34:59;4.57;;;2.10;;
24373;SDS011;12498;50.880;12.096;2023-07-16T12:37:25;5.88;;;2.08;;
24373;SDS011;12498;50.880;12.096;2023-07-16T12:39:51;3.65;;;2.10;;
24373;SDS011;12498;50.880;12.096;2023-07-16T12:42:17;6.45;;;2.17;;
24373;SDS011;12498;50.880;12.096;2023-07-16T12:44:43;7.50;;;2.50;;
24373;SDS011;12498;50.880;12.096;2023-07-16T12:47:08;11.52;;;2.38;;
24373;SDS011;12498;50.880;12.096;2023-07-16T12:49:34;5.75;;;2.35;;
24373;SDS011;12498;50.880;12.096;2023-07-16T12:52:00;5.45;;;2.38;;
24373;SDS011;12498;50.880;12.096;2023-07-16T12:54:27;7.40;;;2.30;;
24373;SDS011;12498;50.880;12.096;2023-07-16T12:56:52;5.28;;;1.98;;
24373;SDS011;12498;50.880;12.096;2023-07-16T12:59:18;6.07;;;2.40;;
24373;SDS011;12498;50.880;12.096;2023-07-16T13:01:44;3.60;;;2.20;;
24373;SDS011;12498;50.880;12.096;2023-07-16T13:04:09;8.20;;;2.38;;
24373;SDS011;12498;50.880;12.096;2023-07-16T13:06:35;6.00;;;3.00;;
24373;SDS011;12498;50.880;12.096;2023-07-16T13:09:01;5.45;;;2.05;;
24373;SDS011;12498;50.880;12.096;2023-07-16T13:11:26;7.50;;;2.45;;
24373;SDS011;12498;50.880;12.096;2023-07-16T13:13:52;5.57;;;2.35;;
24373;SDS011;12498;50.880;12.096;2023-07-16T13:16:18;5.50;;;2.50;;
24373;SDS011;12498;50.880;12.096;2023-07-16T13:18:43;4.88;;;2.42;;
24373;SDS011;12498;50.880;12.096;2023-07-16T13:21:09;3.63;;;2.10;;
24373;SDS011;12498;50.880;12.096;2023-07-16T13:23:35;5.50;;;2.40;;
24373;SDS011;12498;50.880;12.096;2023-07-16T13:26:00;5.72;;;2.67;;
24373;SDS011;12498;50.880;12.096;2023-07-16T13:28:26;6.60;;;2.60;;
24373;SDS011;12498;50.880;12.096;2023-07-16T13:30:53;7.57;;;2.58;;
24373;SDS011;12498;50.880;12.096;2023-07-16T13:33:18;7.13;;;2.58;;
24373;SDS011;12498;50.880;12.096;2023-07-16T13:35:44;7.35;;;2.60;;
24373;SDS011;12498;50.880;12.096;2023-07-16T13:38:10;6.82;;;2.65;;
24373;SDS011;12498;50.880;12.096;2023-07-16T13:40:36;4.85;;;2.72;;
24373;SDS011;12498;50.880;12.096;2023-07-16T13:43:01;9.80;;;3.00;;
24373;SDS011;12498;50.880;12.096;2023-07-16T13:45:27;5.88;;;2.80;;
24373;SDS011;12498;50.880;12.096;2023-07-16T13:47:52;7.13;;;2.70;;
24373;SDS011;12498;50.880;12.096;2023-07-16T13:50:20;6.95;;;2.75;;
24373;SDS011;12498;50.880;12.096;2023-07-16T13:52:46;6.05;;;2.60;;
24373;SDS011;12498;50.880;12.096;2023-07-16T13:55:11;9.07;;;2.72;;
24373;SDS011;12498;50.880;12.096;2023-07-16T13:57:37;8.68;;;2.92;;
24373;SDS011;12498;50.880;12.096;2023-07-16T14:00:03;6.30;;;2.78;;
24373;SDS011;12498;50.880;12.096;2023-07-16T14:02:29;6.25;;;2.53;;
24373;SDS011;12498;50.880;12.096;2023-07-16T14:04:55;6.13;;;3.22;;
24373;SDS011;12498;50.880;12.096;2023-07-16T14:07:21;6.90;;;2.58;;
24373;SDS011;12498;50.880;12.096;2023-07-16T14:09:47;7.57;;;2.58;;
24373;SDS011;12498;50.880;12.096;2023-07-16T14:12:13;5.55;;;2.70;;
24373;SDS011;12498;50.880;12.096;2023-07-16T14:14:39;5.93;;;2.85;;
24373;SDS011;12498;50.880;12.096;2023-07-16T14:17:04;4.82;;;2.40;;
24373;SDS011;12498;50.880;12.096;2023-07-16T14:19:30;5.18;;;2.75;;
24373;SDS011;12498;50.880;12.096;2023-07-16T14:21:56;5.72;;;2.97;;
24373;SDS011;12498;50.880;12.096;2023-07-16T14:24:22;6.95;;;3.20;;
24373;SDS011;12498;50.880;12.096;2023-07-16T14:26:47;8.00;;;3.60;;
24373;SDS011;12498;50.880;12.096;2023-07-16T14:29:14;7.63;;;3.10;;
24373;SDS011;12498;50.880;12.096;2023-07-16T14:31:40;5.82;;;3.17;;
24373;SDS011;12498;50.880;12.096;2023-07-16T14:34:05;7.35;;;3.10;;
24373;SDS011;12498;50.880;12.096;2023-07-16T14:36:31;6.75;;;2.75;;
24373;SDS011;12498;50.880;12.096;2023-07-16T14:38:57;8.02;;;3.22;;
24373;SDS011;12498;50.880;12.096;2023-07-16T14:41:23;5.68;;;3.00;;
24373;SDS011;12498;50.880;12.096;2023-07-16T14:43:48;7.90;;;3.30;;